Time;durP1;ratioP1;P1;durP2;ratioP2;P2;SDS_P1;SDS_P2;PMS_P1;PMS_P2;Temp;Humidity;BMP_temperature;BMP_pressure;BME280_temperature;BME280_humidity;BME280_pressure;Samples;Min_cycle;Max_cycle;Signal;HPM_P1;HPM_P2
2022/11/21 00:01:55;;;;;;;28.60;10.13;;;;;;;3.35;78.25;100219.72;1652872;85;21240;-58
2022/11/21 00:05:02;;;;;;;17.00;7.12;;;;;;;3.33;78.28;100214.45;1633363;85;21212;-59
2022/11/21 00:08:09;;;;;;;17.80;7.33;;;;;;;3.32;78.25;100207.82;1652852;86;21267;-59
2022/11/21 00:11:16;;;;;;;18.02;7.75;;;;;;;3.25;78.16;100209.36;1652869;85;21236;-58
2022/11/21 00:14:24;;;;;;;11.22;5.42;;;;;;;3.27;78.29;100210.93;1652767;85;21216;-58
2022/11/21 00:17:30;;;;;;;9.38;4.80;;;;;;;3.32;78.38;100218.16;1652889;86;21204;-58
2022/11/21 00:20:36;;;;;;;9.30;4.92;;;;;;;3.36;78.41;100218.27;1652793;85;21216;-58
2022/11/21 00:23:43;;;;;;;20.32;8.43;;;;;;;3.40;78.48;100225.11;1652908;85;21228;-60
2022/11/21 00:26:49;;;;;;;17.62;9.00;;;;;;;3.39;78.37;100222.05;1652839;85;21236;-59
2022/11/21 00:29:55;;;;;;;12.45;7.62;;;;;;;3.42;78.43;100226.32;1652838;85;21654;-59
2022/11/21 00:33:01;;;;;;;18.48;9.80;;;;;;;3.43;78.36;100232.08;1655073;82;21232;-58
2022/11/21 00:36:15;;;;;;;17.37;7.90;;;;;;;3.37;78.27;100230.78;1670064;84;21285;-56
2022/11/21 00:39:23;;;;;;;21.87;10.05;;;;;;;3.30;78.12;100227.41;1669938;84;21238;-58
2022/11/21 00:42:29;;;;;;;12.55;6.17;;;;;;;3.25;78.21;100219.66;1669925;84;21233;-58
2022/11/21 00:45:35;;;;;;;8.60;4.33;;;;;;;3.26;78.25;100214.64;1669771;84;21809;-58
2022/11/21 00:48:42;;;;;;;14.28;7.17;;;;;;;3.11;77.91;100209.71;1654511;85;21225;-57
2022/11/21 00:51:48;;;;;;;15.95;6.53;;;;;;;2.98;77.98;100207.22;1669808;84;21273;-57
2022/11/21 00:54:55;;;;;;;21.50;5.53;;;;;;;2.93;78.07;100207.58;1669880;84;21221;-57
2022/11/21 00:58:01;;;;;;;11.63;6.30;;;;;;;2.87;78.03;100211.33;1659167;85;21209;-57
2022/11/21 01:01:19;;;;;;;14.13;6.33;;;;;;;2.82;78.13;100194.65;1669708;84;21229;-57
2022/11/21 01:04:27;;;;;;;14.95;6.30;;;;;;;2.78;78.18;100193.18;1669801;86;21213;-57
2022/11/21 01:07:34;;;;;;;16.77;8.15;;;;;;;2.82;78.42;100177.92;1654267;86;21809;-57
2022/11/21 01:10:42;;;;;;;13.70;6.80;;;;;;;2.88;78.61;100195.47;1669959;84;21371;-58
2022/11/21 01:13:48;;;;;;;12.15;5.92;;;;;;;2.95;78.76;100211.50;1669838;86;21322;-57
2022/11/21 01:16:53;;;;;;;11.55;5.80;;;;;;;3.02;78.79;100220.33;1669893;84;21273;-57
2022/11/21 01:20:01;;;;;;;17.60;5.50;;;;;;;3.00;78.53;100234.47;1669812;86;21197;-58
2022/11/21 01:23:07;;;;;;;12.58;6.78;;;;;;;2.91;78.36;100228.51;1669737;85;21257;-57
2022/11/21 01:26:19;;;;;;;14.25;6.65;;;;;;;2.85;78.33;100233.58;1669927;84;21221;-58
2022/11/21 01:29:26;;;;;;;14.55;5.92;;;;;;;2.83;78.44;100228.78;1669930;86;21206;-57
2022/11/21 01:32:34;;;;;;;13.75;6.78;;;;;;;2.84;78.48;100226.44;1659321;85;21253;-58
2022/11/21 01:35:40;;;;;;;15.72;6.22;;;;;;;2.84;78.50;100225.95;1661406;81;21202;-58
2022/11/21 01:38:46;;;;;;;13.38;6.17;;;;;;;2.84;78.55;100233.19;1616682;86;21252;-57
2022/11/21 01:41:53;;;;;;;11.60;6.05;;;;;;;2.85;78.53;100225.47;1662538;85;21247;-57
2022/11/21 01:45:04;;;;;;;14.15;6.28;;;;;;;2.79;78.42;100227.34;1662585;85;21264;-57
2022/11/21 01:48:10;;;;;;;9.05;5.92;;;;;;;2.71;78.47;100243.35;1662523;86;21311;-57
2022/11/21 01:51:27;;;;;;;16.27;6.03;;;;;;;2.70;78.57;100241.62;1652890;85;21287;-57
2022/11/21 01:54:46;;;;;;;11.30;5.87;;;;;;;2.76;78.75;100249.20;1645614;86;21195;-57
2022/11/21 01:57:53;;;;;;;11.85;5.78;;;;;;;2.80;78.79;100247.97;1646437;86;21730;-57
2022/11/21 02:00:59;;;;;;;9.80;5.50;;;;;;;2.79;78.84;100247.10;1645874;85;21209;-58
2022/11/21 02:04:04;;;;;;;10.32;5.25;;;;;;;2.84;79.02;100244.88;1662578;86;21287;-57
2022/11/21 02:07:10;;;;;;;12.07;5.40;;;;;;;2.86;78.86;100250.14;1662221;85;21236;-57
2022/11/21 02:10:17;;;;;;;17.30;5.92;;;;;;;2.82;78.79;100241.95;1636406;85;21589;-57
2022/11/21 02:13:23;;;;;;;12.55;6.12;;;;;;;2.79;78.82;100232.75;1662571;86;21223;-56
2022/11/21 02:16:29;;;;;;;16.25;6.15;;;;;;;2.76;78.76;100220.83;1662495;85;21286;-58
2022/11/21 02:19:59;;;;;;;9.83;5.92;;;;;;;2.73;78.75;100219.73;1662744;85;21353;-57
2022/11/21 02:23:40;;;;;;;15.28;6.08;;;;;;;2.62;78.57;100227.89;1653011;86;21215;-57
2022/11/21 02:26:45;;;;;;;10.08;5.55;;;;;;;2.58;78.68;100236.78;1646135;86;21220;-58
2022/11/21 02:29:53;;;;;;;14.23;6.47;;;;;;;2.62;78.83;100231.47;1662721;85;21195;-58
2022/11/21 02:32:59;;;;;;;12.75;7.00;;;;;;;2.52;78.69;100229.67;1642220;86;21313;-58
2022/11/21 02:36:08;;;;;;;14.07;6.97;;;;;;;2.55;78.97;100219.45;1661232;82;21223;-58
2022/11/21 02:39:16;;;;;;;14.35;7.22;;;;;;;2.65;79.14;100227.63;1663937;85;21391;-58
2022/11/21 02:42:30;;;;;;;15.90;7.30;;;;;;;2.66;79.11;100231.55;1662655;85;21276;-57
2022/11/21 02:45:46;;;;;;;12.05;6.55;;;;;;;2.69;79.15;100227.75;1646171;86;21204;-57
2022/11/21 02:48:53;;;;;;;13.60;7.20;;;;;;;2.67;79.09;100233.77;1632523;86;21228;-56
2022/11/21 02:51:59;;;;;;;16.10;6.90;;;;;;;2.68;79.12;100226.05;1647068;86;21231;-57
2022/11/21 02:55:05;;;;;;;17.85;8.20;;;;;;;2.69;79.09;100219.16;1662437;85;21232;-56
2022/11/21 02:58:11;;;;;;;13.40;8.15;;;;;;;2.70;79.10;100217.30;1646303;86;21733;-57
2022/11/21 03:01:18;;;;;;;20.88;10.63;;;;;;;2.76;79.31;100220.34;1662507;85;21362;-57
2022/11/21 03:04:24;;;;;;;20.88;10.75;;;;;;;2.83;79.31;100213.92;1663053;85;21279;-57
2022/11/21 03:07:31;;;;;;;25.10;11.88;;;;;;;2.86;79.25;100228.03;1662491;86;21609;-57
2022/11/21 03:10:37;;;;;;;20.43;8.95;;;;;;;2.87;79.25;100234.31;1663123;85;21228;-56
2022/11/21 03:13:43;;;;;;;20.60;9.48;;;;;;;2.92;79.30;100233.39;1662528;85;21251;-57
2022/11/21 03:16:50;;;;;;;21.57;8.70;;;;;;;2.98;79.37;100235.59;1662603;85;21255;-56
2022/11/21 03:19:55;;;;;;;20.88;8.93;;;;;;;2.97;79.30;100230.67;1662315;86;21184;-56
2022/11/21 03:23:03;;;;;;;19.52;8.30;;;;;;;2.95;79.23;100220.48;1652908;86;21256;-56
2022/11/21 03:26:08;;;;;;;15.10;8.33;;;;;;;2.97;79.29;100214.45;1646359;86;21288;-57
2022/11/21 03:29:15;;;;;;;28.50;11.65;;;;;;;2.96;79.21;100202.42;1662576;86;21232;-58
2022/11/21 03:32:22;;;;;;;62.58;26.25;;;;;;;2.92;79.11;100185.61;1652819;85;21240;-57
2022/11/21 03:35:28;;;;;;;85.87;35.30;;;;;;;2.93;79.19;100171.61;1646049;86;21262;-56
2022/11/21 03:38:34;;;;;;;80.15;35.17;;;;;;;2.91;79.10;100170.88;1629235;84;21301;-57
2022/11/21 03:41:40;;;;;;;47.93;23.40;;;;;;;2.91;79.22;100194.72;1652890;85;21263;-57
2022/11/21 03:44:46;;;;;;;35.03;16.52;;;;;;;2.99;79.39;100192.70;1624971;88;21229;-57
2022/11/21 03:47:52;;;;;;;40.88;19.82;;;;;;;3.08;79.45;100209.47;1653027;86;21197;-57
2022/11/21 03:50:58;;;;;;;39.95;20.60;;;;;;;3.13;79.42;100216.69;1624817;87;21398;-57
2022/11/21 03:54:05;;;;;;;43.63;17.98;;;;;;;3.17;79.38;100207.34;1668297;84;21224;-56
2022/11/21 04:00:25;;;;;;;25.37;13.58;;;;;;;3.23;79.46;100196.46;1658898;85;21276;-58
2022/11/21 04:03:31;;;;;;;30.08;14.78;;;;;;;3.20;79.22;100185.43;1677328;85;21240;-58
2022/11/21 04:06:38;;;;;;;24.55;12.47;;;;;;;3.14;79.16;100165.66;1676645;84;21236;-57
2022/11/21 04:09:44;;;;;;;17.82;9.38;;;;;;;3.09;79.15;100168.77;1678126;85;21221;-57
2022/11/21 04:12:51;;;;;;;19.48;9.50;;;;;;;3.12;79.19;100181.67;1678138;85;21325;-57
2022/11/21 04:15:57;;;;;;;21.17;9.25;;;;;;;3.16;79.34;100184.45;1649480;85;21785;-57
2022/11/21 04:19:03;;;;;;;18.57;9.53;;;;;;;3.19;79.35;100191.81;1649500;87;21189;-57
2022/11/21 04:22:10;;;;;;;16.07;8.10;;;;;;;3.22;79.36;100211.82;1649509;85;21245;-56
2022/11/21 04:25:15;;;;;;;19.05;7.83;;;;;;;3.18;79.21;100218.50;1649543;85;21225;-57
2022/11/21 04:28:23;;;;;;;15.05;8.95;;;;;;;3.18;79.28;100223.91;1641192;87;21656;-57
2022/11/21 04:31:29;;;;;;;33.90;13.20;;;;;;;3.15;79.16;100229.59;1649602;85;21378;-60
2022/11/21 04:34:35;;;;;;;29.95;15.65;;;;;;;3.17;79.32;100230.80;1649421;87;21249;-57
2022/11/21 04:37:39;;;;;;;26.82;13.62;;;;;;;3.21;79.39;100218.23;1649525;86;21237;-59
2022/11/21 04:40:46;;;;;;;19.57;10.00;;;;;;;3.25;79.43;100199.90;1649522;85;21237;-59
2022/11/21 04:43:53;;;;;;;14.50;7.83;;;;;;;3.25;79.35;100193.14;1640528;87;21221;-58
2022/11/21 04:46:59;;;;;;;17.17;8.95;;;;;;;3.26;79.40;100194.35;1649076;85;21292;-57
2022/11/21 04:50:04;;;;;;;28.98;12.07;;;;;;;3.24;79.30;100187.34;1649041;85;21209;-60
2022/11/21 04:53:09;;;;;;;27.98;12.78;;;;;;;3.23;79.25;100195.98;1648993;87;21261;-59
2022/11/21 04:56:15;;;;;;;50.67;20.45;;;;;;;3.21;79.25;100197.08;1649093;85;21229;-58
2022/11/21 04:59:20;;;;;;;29.05;12.78;;;;;;;3.22;79.26;100194.24;1651134;83;21236;-58
2022/11/21 05:02:25;;;;;;;24.60;10.60;;;;;;;3.20;79.22;100201.66;1649000;85;21301;-58
2022/11/21 05:05:31;;;;;;;52.55;22.27;;;;;;;3.15;79.15;100198.48;1649008;85;21364;-58
2022/11/21 05:08:37;;;;;;;34.65;19.12;;;;;;;3.09;79.09;100186.86;1639487;87;21225;-58
2022/11/21 05:15:09;;;;;;;31.73;12.50;;;;;;;3.11;79.17;100201.59;1647200;85;21249;-58
2022/11/21 05:18:18;;;;;;;37.42;12.85;;;;;;;3.07;79.15;100209.11;1647074;87;21296;-59
2022/11/21 05:21:26;;;;;;;37.73;17.60;;;;;;;3.01;79.05;100217.77;1647127;85;21676;-58
2022/11/21 05:24:34;;;;;;;40.03;19.37;;;;;;;3.03;79.24;100202.23;1630713;87;21253;-58
2022/11/21 05:27:40;;;;;;;31.55;16.93;;;;;;;3.13;79.46;100189.64;1646654;87;21241;-58
2022/11/21 05:30:46;;;;;;;37.25;18.23;;;;;;;3.21;79.58;100193.02;1646749;85;21731;-58
2022/11/21 05:33:52;;;;;;;36.55;18.75;;;;;;;3.29;79.61;100190.02;1646372;87;21248;-58
2022/11/21 05:37:00;;;;;;;35.05;17.37;;;;;;;3.29;79.45;100198.14;1646358;85;21216;-58
2022/11/21 05:40:07;;;;;;;27.02;12.60;;;;;;;3.30;79.41;100192.24;1646670;85;21777;-58
2022/11/21 05:46:54;;;;;;;25.00;13.10;;;;;;;3.28;79.30;100211.80;1646515;85;21750;-58
2022/11/21 05:50:00;;;;;;;29.92;13.90;;;;;;;3.37;79.51;100196.97;1646756;87;21332;-58
2022/11/21 05:53:09;;;;;;;30.08;16.70;;;;;;;3.33;79.29;100184.69;1647742;85;21246;-58
2022/11/21 05:56:19;;;;;;;26.60;14.93;;;;;;;3.32;79.25;100192.94;1642346;87;21214;-58
2022/11/21 05:59:25;;;;;;;26.77;13.90;;;;;;;3.37;79.31;100196.97;1642770;87;22088;-58
2022/11/21 06:06:11;;;;;;;37.08;20.08;;;;;;;3.45;79.41;100198.51;1646873;87;21607;-61
2022/11/21 06:09:18;;;;;;;19.98;11.38;;;;;;;3.56;79.55;100187.59;1613354;87;21782;-59
2022/11/21 06:12:27;;;;;;;34.85;15.45;;;;;;;3.61;79.43;100171.80;1642669;86;21248;-61
2022/11/21 06:15:34;;;;;;;26.50;14.28;;;;;;;3.48;79.12;100169.82;1640706;86;21855;-60
2022/11/21 06:18:42;;;;;;;24.82;14.40;;;;;;;3.39;79.01;100177.90;1639528;85;21281;-59
2022/11/21 06:21:50;;;;;;;32.00;15.85;;;;;;;3.32;78.98;100173.52;1673207;84;21251;-59
2022/11/21 06:24:55;;;;;;;47.08;27.13;;;;;;;3.31;79.06;100161.00;1672586;85;21205;-59
2022/11/21 06:28:01;;;;;;;44.20;26.02;;;;;;;3.31;79.12;100162.35;1675247;85;21241;-60
2022/11/21 06:31:25;;;;;;;30.88;21.48;;;;;;;3.27;79.07;100143.31;1661642;85;21808;-59
2022/11/21 06:34:35;;;;;;;24.00;15.15;;;;;;;3.32;79.20;100151.02;1662236;85;21268;-62
2022/11/21 06:37:41;;;;;;;20.20;10.93;;;;;;;3.41;79.46;100151.05;1665642;84;21225;-62
2022/11/21 06:40:49;;;;;;;17.77;10.08;;;;;;;3.47;79.38;100156.44;1664832;85;21236;-62
2022/11/21 06:43:54;;;;;;;16.25;10.28;;;;;;;3.50;79.32;100152.09;1645637;86;21229;-63
2022/11/21 06:47:01;;;;;;;21.45;13.43;;;;;;;3.55;79.43;100158.80;1647557;85;21320;-62
2022/11/21 06:50:09;;;;;;;19.48;10.23;;;;;;;3.62;79.46;100159.97;1645883;85;21765;-61
2022/11/21 06:53:15;;;;;;;20.32;11.68;;;;;;;3.57;79.25;100164.94;1647321;87;21284;-62
2022/11/21 06:56:22;;;;;;;19.23;10.38;;;;;;;3.59;79.37;100161.60;1650955;85;21202;-62
2022/11/21 06:59:28;;;;;;;15.80;9.50;;;;;;;3.69;79.46;100171.98;1622384;87;21233;-62
2022/11/21 07:02:34;;;;;;;17.52;10.18;;;;;;;3.72;79.38;100171.70;1620406;86;21260;-62
2022/11/21 07:05:39;;;;;;;19.27;10.78;;;;;;;3.74;79.33;100166.98;1620137;86;21295;-62
2022/11/21 07:08:44;;;;;;;18.00;12.55;;;;;;;3.82;79.48;100169.85;1604421;88;21296;-62
2022/11/21 07:11:53;;;;;;;18.35;11.73;;;;;;;3.93;79.57;100169.73;1621330;86;21324;-61
2022/11/21 07:14:58;;;;;;;17.55;12.03;;;;;;;4.05;79.53;100170.48;1638970;87;21857;-62
2022/11/21 07:18:06;;;;;;;24.15;12.50;;;;;;;4.14;79.53;100169.14;1647706;86;21292;-61
2022/11/21 07:21:13;;;;;;;25.90;16.65;;;;;;;4.23;79.51;100161.52;1647604;85;21237;-62
2022/11/21 07:24:18;;;;;;;35.43;21.90;;;;;;;4.27;79.38;100139.94;1648209;86;21261;-62
2022/11/21 07:27:25;;;;;;;24.45;14.50;;;;;;;4.24;79.23;100140.22;1644099;87;21249;-62
2022/11/21 07:30:30;;;;;;;21.80;12.70;;;;;;;4.22;79.19;100147.62;1647169;87;21356;-64
2022/11/21 07:33:37;;;;;;;23.22;13.35;;;;;;;4.24;79.22;100151.55;1647061;87;21213;-61
2022/11/21 07:36:43;;;;;;;28.90;15.90;;;;;;;4.26;79.23;100141.44;1646378;87;21249;-62
2022/11/21 07:39:50;;;;;;;29.05;14.93;;;;;;;4.22;79.07;100142.70;1646368;87;21261;-61
2022/11/21 07:42:56;;;;;;;26.52;15.23;;;;;;;4.20;79.05;100153.67;1645951;86;21245;-64
2022/11/21 07:46:04;;;;;;;17.10;10.30;;;;;;;4.23;79.16;100161.52;1661514;85;21256;-63
2022/11/21 07:49:10;;;;;;;21.27;12.28;;;;;;;4.28;79.18;100159.77;1656271;86;21235;-62
2022/11/21 07:52:17;;;;;;;17.52;10.38;;;;;;;4.33;79.20;100171.01;1650841;85;21237;-61
2022/11/21 07:55:24;;;;;;;17.12;9.38;;;;;;;4.40;79.27;100171.68;1647497;87;21256;-60
2022/11/21 07:58:32;;;;;;;21.95;11.97;;;;;;;4.51;79.36;100174.25;1646264;86;21237;-61
2022/11/21 08:01:38;;;;;;;18.57;9.55;;;;;;;4.63;79.42;100179.87;1645464;87;21209;-62
2022/11/21 08:04:49;;;;;;;15.55;9.48;;;;;;;4.67;79.16;100170.09;1689239;85;21232;-62
2022/11/21 08:07:54;;;;;;;13.98;7.70;;;;;;;4.74;79.19;100174.78;1656390;86;21208;-61
2022/11/21 08:11:02;;;;;;;12.07;7.42;;;;;;;4.78;79.13;100183.49;1680971;85;21265;-62
2022/11/21 08:14:09;;;;;;;16.85;9.68;;;;;;;4.82;79.14;100195.78;1679317;85;21778;-60
2022/11/21 08:17:17;;;;;;;15.80;9.08;;;;;;;4.90;79.24;100213.55;1672128;85;21232;-61
2022/11/21 08:20:23;;;;;;;27.90;13.90;;;;;;;4.96;79.29;100178.57;1660191;84;21700;-61
2022/11/21 08:23:29;;;;;;;19.12;11.03;;;;;;;5.01;79.20;100175.42;1619134;86;21549;-62
2022/11/21 08:26:37;;;;;;;15.20;8.93;;;;;;;4.96;78.98;100172.28;1692415;84;21235;-63
2022/11/21 08:29:44;;;;;;;21.65;11.93;;;;;;;5.04;79.09;100147.50;1686792;84;21218;-61
2022/11/21 08:32:52;;;;;;;19.48;10.35;;;;;;;5.08;78.87;100139.91;1677608;85;22069;-62
2022/11/21 08:35:58;;;;;;;18.48;10.90;;;;;;;4.97;78.64;100126.52;1678074;84;21805;-62
2022/11/21 08:39:03;;;;;;;20.45;11.05;;;;;;;4.97;78.76;100134.66;1678569;85;21216;-61
2022/11/21 08:42:10;;;;;;;20.12;10.82;;;;;;;4.91;78.54;100133.40;1678820;84;21224;-60
2022/11/21 08:45:16;;;;;;;17.25;9.20;;;;;;;4.85;78.69;100145.33;1685052;83;21204;-62
2022/11/21 08:48:22;;;;;;;20.75;11.05;;;;;;;4.94;78.96;100149.86;1694976;84;21317;-62
2022/11/21 08:51:28;;;;;;;16.90;9.30;;;;;;;5.03;78.96;100143.55;1667880;84;21279;-61
2022/11/21 08:54:34;;;;;;;23.30;11.12;;;;;;;5.02;78.96;100152.70;1670072;85;21773;-59
2022/11/21 08:57:45;;;;;;;19.35;10.60;;;;;;;5.07;79.02;100142.27;1661623;86;21333;-62
2022/11/21 09:00:51;;;;;;;37.05;17.00;;;;;;;5.11;79.04;100125.55;1661884;84;21248;-61
2022/11/21 09:03:57;;;;;;;30.62;13.62;;;;;;;5.07;78.77;100086.66;1694427;81;21264;-61
2022/11/21 09:07:03;;;;;;;22.15;11.12;;;;;;;4.89;78.54;100102.84;1679145;83;21248;-61
2022/11/21 09:10:09;;;;;;;15.78;8.50;;;;;;;4.87;78.80;100122.99;1678142;85;21611;-60
2022/11/21 09:13:14;;;;;;;14.45;8.58;;;;;;;4.90;78.91;100142.52;1659210;85;21275;-62
2022/11/21 09:19:52;;;;;;;22.30;12.10;;;;;;;5.05;79.19;100130.22;1678704;85;21742;-62
2022/11/21 09:22:59;;;;;;;17.23;9.53;;;;;;;5.14;79.27;100112.21;1656800;86;21788;-61
2022/11/21 09:26:07;;;;;;;33.70;17.82;;;;;;;5.16;79.24;100106.11;1649814;85;21256;-60
2022/11/21 09:29:15;;;;;;;41.23;25.75;;;;;;;5.18;79.14;100106.83;1650347;87;21244;-62
2022/11/21 09:32:21;;;;;;;26.52;18.15;;;;;;;5.16;79.03;100112.41;1651555;85;21323;-62
2022/11/21 09:35:29;;;;;;;29.65;16.87;;;;;;;5.16;79.04;100099.33;1658534;85;21268;-62
2022/11/21 09:38:35;;;;;;;18.50;10.70;;;;;;;5.22;79.17;100100.09;1675227;85;21236;-61
2022/11/21 09:42:17;;;;;;;16.48;9.58;;;;;;;5.26;79.25;100101.52;1658174;85;21726;-64
2022/11/21 09:45:37;;;;;;;19.30;10.05;;;;;;;5.34;79.30;100092.99;1648327;85;21240;-64
2022/11/21 09:48:58;;;;;;;20.37;11.50;;;;;;;5.38;79.29;100100.30;1676163;85;21758;-62
2022/11/21 09:52:05;;;;;;;15.30;8.93;;;;;;;5.46;79.37;100088.20;1678075;83;21880;-61
2022/11/21 09:55:14;;;;;;;16.57;10.15;;;;;;;5.50;79.22;100077.41;1677953;83;21284;-58
2022/11/21 09:58:56;;;;;;;15.15;8.43;;;;;;;5.46;79.02;100080.05;1679679;83;21598;-59
2022/11/21 10:02:04;;;;;;;26.00;9.60;;;;;;;5.43;79.01;100105.66;1673000;85;21276;-61
2022/11/21 10:05:10;;;;;;;28.20;10.48;;;;;;;5.46;79.14;100100.41;1671456;85;21296;-59
2022/11/21 10:08:30;;;;;;;17.73;8.75;;;;;;;5.45;79.11;100097.36;1619535;88;21240;-59
2022/11/21 10:16:08;;;;;;;13.83;8.73;;;;;;;5.42;79.07;100106.64;1646931;85;21244;-62
2022/11/21 10:19:22;;;;;;;16.90;9.78;;;;;;;5.40;79.04;100086.95;1587755;89;21266;-62
2022/11/21 10:22:54;;;;;;;21.37;12.30;;;;;;;5.37;79.04;100090.47;1573304;91;21641;-60
2022/11/21 10:26:15;;;;;;;17.55;10.70;;;;;;;5.35;78.99;100089.75;1607215;87;21574;-62
2022/11/21 10:29:45;;;;;;;15.93;9.45;;;;;;;5.28;79.04;100104.94;1593046;88;21875;-60
2022/11/21 10:33:06;;;;;;;13.85;8.08;;;;;;;5.34;79.29;100112.48;1617061;88;21757;-59
2022/11/21 10:36:20;;;;;;;12.98;7.85;;;;;;;5.42;79.49;100108.52;1618031;87;21888;-60
2022/11/21 10:39:33;;;;;;;17.57;9.85;;;;;;;5.48;79.50;100141.84;1616790;88;21212;-60
2022/11/21 10:42:47;;;;;;;13.68;8.43;;;;;;;5.48;79.31;100157.64;1616682;87;21213;-59
2022/11/21 10:45:53;;;;;;;16.52;9.10;;;;;;;5.47;79.15;100165.41;1591772;88;21259;-60
2022/11/21 10:49:10;;;;;;;18.62;10.05;;;;;;;5.42;78.95;100157.38;1591389;89;22163;-61
2022/11/21 10:52:25;;;;;;;19.55;11.48;;;;;;;5.37;78.88;100152.40;1592919;88;21319;-60
2022/11/21 10:55:32;;;;;;;21.60;10.98;;;;;;;5.37;78.89;100148.81;1598731;89;21258;-59
2022/11/21 10:58:49;;;;;;;21.62;12.03;;;;;;;5.32;78.64;100129.41;1609042;87;21201;-60
2022/11/21 11:02:09;;;;;;;36.77;18.07;;;;;;;5.21;78.54;100132.30;1638104;87;21266;-58
2022/11/21 11:05:33;;;;;;;29.52;14.98;;;;;;;5.20;78.86;100120.59;1613345;88;21809;-59
2022/11/21 11:09:00;;;;;;;82.12;37.63;;;;;;;5.23;79.05;100111.31;1631994;87;21792;-59
2022/11/21 11:16:03;;;;;;;30.00;16.17;;;;;;;5.25;79.40;100076.75;1645857;85;21314;-59
2022/11/21 11:19:23;;;;;;;41.05;21.87;;;;;;;5.18;79.24;100061.57;1630253;88;21345;-59
2022/11/21 11:22:36;;;;;;;31.42;18.48;;;;;;;5.11;79.25;100052.80;1648558;86;21583;-58
2022/11/21 11:25:42;;;;;;;34.18;20.02;;;;;;;5.08;79.38;100054.45;1627417;87;21256;-61
2022/11/21 11:28:48;;;;;;;28.62;15.98;;;;;;;5.12;79.53;100043.15;1617408;88;21252;-61
2022/11/21 11:32:14;;;;;;;26.70;14.75;;;;;;;5.04;79.35;100028.64;1617115;88;21296;-59
2022/11/21 11:35:29;;;;;;;24.87;14.90;;;;;;;4.86;79.07;100027.70;1616738;88;21220;-57
2022/11/21 11:38:30;;;;;;;22.40;12.63;;;;;;;4.78;79.28;100013.55;1648867;87;22002;-60
2022/11/21 11:48:47;;;;;;;20.35;12.07;;;;;;;4.79;79.87;99984.59;1690956;83;21170;-59
2022/11/21 11:52:07;;;;;;;21.27;11.85;;;;;;;4.83;79.90;99971.93;1680658;85;21770;-58
2022/11/21 11:55:14;;;;;;;23.50;12.20;;;;;;;4.82;79.88;99947.67;1681180;85;21291;-58
2022/11/21 11:58:30;;;;;;;19.37;10.13;;;;;;;4.73;79.71;99944.00;1682633;85;21254;-58
2022/11/21 12:02:04;;;;;;;23.42;13.35;;;;;;;4.63;79.69;99937.75;1666734;85;21225;-58
2022/11/21 12:05:17;;;;;;;16.65;9.55;;;;;;;4.57;79.76;99928.38;1677538;84;21224;-59
2022/11/21 12:08:30;;;;;;;18.55;9.93;;;;;;;4.56;79.92;99906.36;1676071;82;21244;-59
2022/11/21 12:12:06;;;;;;;16.85;9.45;;;;;;;4.55;79.94;99907.86;1620453;88;21276;-59
2022/11/21 12:15:51;;;;;;;13.68;8.58;;;;;;;4.55;80.05;99905.15;1627641;87;21248;-60
2022/11/21 12:19:16;;;;;;;11.57;7.42;;;;;;;4.61;80.25;99913.51;1647883;87;21527;-58
2022/11/21 12:22:22;;;;;;;14.30;7.55;;;;;;;4.68;80.29;99923.25;1647837;87;21268;-58
2022/11/21 12:25:40;;;;;;;13.53;7.65;;;;;;;4.72;80.41;99927.88;1647278;86;21247;-59
2022/11/21 12:29:25;;;;;;;11.28;6.65;;;;;;;4.77;80.48;99918.80;1615871;89;21244;-58
2022/11/21 12:32:59;;;;;;;10.75;6.45;;;;;;;4.82;80.47;99913.78;1616416;88;21305;-58
2022/11/21 12:36:32;;;;;;;13.80;7.37;;;;;;;4.85;80.42;99902.63;1615530;88;21221;-58
2022/11/21 12:40:03;;;;;;;11.83;7.58;;;;;;;4.86;80.39;99887.56;1616427;88;21237;-58
2022/11/21 12:43:33;;;;;;;11.40;6.60;;;;;;;4.81;80.22;99862.77;1616479;88;21233;-59
2022/11/21 12:47:03;;;;;;;12.82;8.08;;;;;;;4.76;80.20;99876.44;1649416;85;21232;-59
2022/11/21 12:57:26;;;;;;;11.00;6.58;;;;;;;4.80;80.39;99887.31;1642271;85;21227;-61
2022/11/21 13:01:05;;;;;;;12.40;7.05;;;;;;;4.83;80.43;99893.30;1640349;85;21217;-58
2022/11/21 13:04:16;;;;;;;12.18;7.35;;;;;;;4.85;80.44;99884.52;1628255;85;21287;-59
2022/11/21 13:07:22;;;;;;;11.25;6.67;;;;;;;4.84;80.37;99881.93;1651936;85;21228;-58
2022/11/21 13:10:28;;;;;;;10.55;6.90;;;;;;;4.84;80.42;99878.72;1626766;85;21547;-58
2022/11/21 13:13:37;;;;;;;13.28;7.75;;;;;;;4.83;80.35;99877.03;1624083;87;21307;-61
2022/11/21 13:16:45;;;;;;;11.55;6.90;;;;;;;4.87;80.42;99871.64;1648073;85;21378;-62
2022/11/21 13:20:33;;;;;;;11.80;7.30;;;;;;;4.90;80.46;99875.92;1619358;88;21240;-60
2022/11/21 13:23:48;;;;;;;16.82;8.78;;;;;;;4.93;80.51;99872.37;1624186;85;21244;-60
2022/11/21 13:26:58;;;;;;;12.70;7.65;;;;;;;4.96;80.59;99859.89;1589279;90;21304;-60
2022/11/21 13:30:21;;;;;;;13.62;7.90;;;;;;;5.01;80.62;99862.14;1588859;90;21208;-60
2022/11/21 13:33:49;;;;;;;12.53;7.37;;;;;;;5.03;80.66;99857.40;1607542;88;21216;-61
2022/11/21 13:36:55;;;;;;;43.15;26.07;;;;;;;5.05;80.64;99856.75;1637848;86;21816;-61
2022/11/21 13:40:01;;;;;;;20.12;11.88;;;;;;;5.06;80.66;99858.47;1654388;85;21248;-60
2022/11/21 13:43:25;;;;;;;22.98;11.90;;;;;;;5.07;80.67;99848.83;1575640;88;21841;-60
2022/11/21 13:47:08;;;;;;;15.85;9.38;;;;;;;5.09;80.70;99848.67;1616736;88;21873;-60
2022/11/21 13:50:37;;;;;;;21.57;12.40;;;;;;;5.08;80.69;99836.95;1617307;88;21216;-60
2022/11/21 13:54:15;;;;;;;31.45;16.05;;;;;;;5.06;80.61;99827.28;1601883;88;21253;-60
2022/11/21 13:57:38;;;;;;;24.20;13.62;;;;;;;5.05;80.70;99833.69;1634036;86;21285;-60
2022/11/21 14:01:02;;;;;;;17.02;9.90;;;;;;;5.06;80.73;99823.22;1618340;87;21201;-60
2022/11/21 14:04:49;;;;;;;17.00;7.97;;;;;;;5.03;80.62;99834.34;1623269;86;21237;-61
2022/11/21 14:07:57;;;;;;;11.08;6.85;;;;;;;5.00;80.52;99803.47;1591003;90;21798;-62
2022/11/21 14:11:04;;;;;;;15.70;8.45;;;;;;;4.97;80.60;99820.91;1565023;87;21236;-60
2022/11/21 14:14:11;;;;;;;16.37;8.78;;;;;;;5.00;80.71;99817.03;1646296;87;21217;-60
2022/11/21 14:17:42;;;;;;;16.95;9.48;;;;;;;5.01;80.67;99806.02;1647152;85;21297;-61
2022/11/21 14:21:07;;;;;;;17.45;9.40;;;;;;;5.00;80.68;99792.61;1646954;85;21276;-59
2022/11/21 14:24:21;;;;;;;17.95;9.80;;;;;;;5.02;80.71;99786.54;1645649;86;21213;-60
2022/11/21 14:27:38;;;;;;;15.45;9.58;;;;;;;5.01;80.72;99790.27;1619554;88;21275;-60
2022/11/21 14:30:48;;;;;;;16.32;9.40;;;;;;;5.01;80.79;99788.92;1619845;86;21896;-61
2022/11/21 14:33:57;;;;;;;16.82;9.83;;;;;;;5.01;80.77;99787.56;1633550;87;21216;-60
2022/11/21 14:37:06;;;;;;;17.50;10.38;;;;;;;5.05;80.83;99794.36;1613966;87;21293;-61
2022/11/21 14:40:15;;;;;;;18.05;9.18;;;;;;;5.08;80.81;99788.63;1639172;85;21233;-62
2022/11/21 14:43:39;;;;;;;18.85;10.25;;;;;;;5.10;80.88;99777.12;1613780;88;21240;-61
2022/11/21 14:46:47;;;;;;;18.05;10.43;;;;;;;5.13;80.93;99771.38;1621324;86;21785;-61
2022/11/21 14:50:00;;;;;;;14.83;9.48;;;;;;;5.15;80.94;99765.30;1631686;87;21737;-60
2022/11/21 14:53:07;;;;;;;17.25;9.60;;;;;;;5.19;80.98;99753.12;1618560;88;21228;-60
2022/11/21 14:56:12;;;;;;;15.23;9.20;;;;;;;5.16;80.93;99726.30;1618608;87;21252;-60
2022/11/21 14:59:29;;;;;;;19.12;9.90;;;;;;;5.17;80.95;99711.76;1617528;87;21233;-60
2022/11/21 15:02:36;;;;;;;15.38;9.83;;;;;;;5.15;80.92;99701.06;1630432;87;21240;-60
2022/11/21 15:05:41;;;;;;;16.57;10.08;;;;;;;5.18;81.04;99704.81;1600127;88;21807;-60
2022/11/21 15:08:50;;;;;;;14.45;9.40;;;;;;;5.22;81.15;99716.17;1615420;87;21579;-57
2022/11/21 15:12:08;;;;;;;17.67;12.40;;;;;;;5.27;81.20;99702.50;1650766;85;21233;-59
2022/11/21 15:15:42;;;;;;;20.15;10.90;;;;;;;5.31;81.18;99681.33;1654784;86;21610;-59
2022/11/21 15:18:49;;;;;;;15.60;9.93;;;;;;;5.30;81.11;99666.90;1648705;86;21581;-60
2022/11/21 15:21:57;;;;;;;15.18;9.58;;;;;;;5.28;80.97;99670.80;1655699;85;21241;-59
2022/11/21 15:25:24;;;;;;;14.28;9.70;;;;;;;5.25;81.06;99657.55;1652665;85;21650;-59
2022/11/21 15:28:30;;;;;;;17.42;9.35;;;;;;;5.29;81.18;99659.78;1649721;86;21720;-60